createdAt,value
2017-09-04T00:02:01.841Z,88.38
2017-09-04T00:04:29.585Z,88.91
2017-09-04T00:06:57.374Z,89.76
2017-09-04T00:09:25.308Z,89.21
2017-09-04T00:11:53.029Z,88.97
2017-09-04T00:14:20.987Z,89.10
2017-09-04T00:16:48.711Z,89.10
2017-09-04T00:19:16.482Z,89.12
2017-09-04T00:21:44.323Z,88.75
2017-09-04T00:24:12.046Z,89.19
2017-09-04T00:26:39.812Z,89.78
2017-09-04T00:29:07.575Z,89.52
2017-09-04T00:31:35.281Z,90.06
2017-09-04T00:34:03.095Z,89.83
2017-09-04T00:36:30.859Z,90.60
2017-09-04T00:38:58.546Z,90.49
2017-09-04T00:41:26.289Z,90.38
2017-09-04T00:43:54.030Z,89.77
2017-09-04T00:46:21.792Z,89.44
2017-09-04T00:48:49.505Z,89.55
2017-09-04T00:51:17.295Z,89.44
2017-09-04T00:53:45.120Z,90.73
2017-09-04T00:56:12.830Z,89.99
2017-09-04T00:58:40.603Z,90.25
2017-09-04T01:01:08.309Z,89.90
2017-09-04T01:03:36.081Z,89.43
2017-09-04T01:06:03.867Z,88.90
2017-09-04T01:08:31.955Z,88.93
2017-09-04T01:10:59.645Z,89.40
2017-09-04T01:13:27.361Z,90.15
2017-09-04T01:15:55.109Z,89.91
2017-09-04T01:18:22.815Z,89.23
2017-09-04T01:20:50.599Z,89.31
2017-09-04T01:23:18.309Z,89.00
2017-09-04T01:25:46.082Z,89.70
2017-09-04T01:28:13.782Z,88.99
2017-09-04T01:30:41.498Z,88.93
2017-09-04T01:33:09.262Z,88.71
2017-09-04T01:35:36.973Z,89.04
2017-09-04T01:38:04.670Z,88.68
2017-09-04T01:40:32.451Z,88.12
2017-09-04T01:43:00.225Z,87.89
2017-09-04T01:45:27.957Z,88.27
2017-09-04T01:47:55.723Z,88.32
2017-09-04T01:50:23.496Z,87.77
2017-09-04T01:52:51.249Z,88.96
2017-09-04T01:55:18.925Z,88.98
2017-09-04T01:57:46.696Z,88.64
2017-09-04T02:00:14.468Z,89.40
2017-09-04T02:02:42.222Z,88.11
2017-09-04T02:05:11.117Z,88.76
2017-09-04T02:07:38.845Z,89.12
2017-09-04T02:10:06.772Z,89.29
2017-09-04T02:12:34.624Z,89.10
2017-09-04T02:15:02.375Z,89.01
2017-09-04T02:17:30.104Z,88.92
2017-09-04T02:19:57.797Z,89.76
2017-09-04T02:22:25.522Z,89.96
2017-09-04T02:24:53.226Z,89.56
2017-09-04T02:27:20.974Z,89.42
2017-09-04T02:29:48.703Z,88.81
2017-09-04T02:32:16.439Z,89.25
2017-09-04T02:34:44.209Z,90.05
2017-09-04T02:37:11.983Z,89.28
2017-09-04T02:39:39.671Z,88.93
2017-09-04T02:42:07.396Z,88.70
2017-09-04T02:44:35.221Z,88.12
2017-09-04T02:47:02.903Z,88.97
2017-09-04T02:49:30.628Z,89.45
2017-09-04T02:51:58.329Z,89.28
2017-09-04T02:54:26.168Z,89.10
2017-09-04T02:56:53.904Z,89.30
2017-09-04T02:59:21.613Z,89.14
2017-09-04T03:01:49.356Z,89.15
2017-09-04T03:04:17.108Z,89.15
2017-09-04T03:06:44.786Z,88.93
2017-09-04T03:09:12.560Z,89.40
2017-09-04T03:11:40.310Z,88.47
2017-09-04T03:14:08.171Z,88.42
2017-09-04T03:16:36.283Z,88.46
2017-09-04T03:19:04.050Z,89.29
2017-09-04T03:21:31.790Z,89.89
2017-09-04T03:23:59.559Z,89.43
2017-09-04T03:26:28.329Z,89.50
2017-09-04T03:28:56.047Z,88.18
2017-09-04T03:31:23.836Z,89.10
2017-09-04T03:33:51.762Z,88.82
2017-09-04T03:36:20.605Z,89.28
2017-09-04T03:38:48.362Z,89.74
2017-09-04T03:41:16.214Z,89.87
2017-09-04T03:43:45.175Z,88.98
2017-09-04T03:46:13.439Z,88.99
2017-09-04T03:48:41.328Z,89.08
2017-09-04T03:51:09.089Z,88.95
2017-09-04T03:53:36.971Z,89.19
2017-09-04T03:56:04.923Z,89.56
2017-09-04T03:58:32.757Z,89.08
2017-09-04T04:01:00.688Z,89.28
2017-09-04T04:03:28.507Z,89.51
2017-09-04T04:05:56.272Z,89.36
2017-09-04T04:08:24.058Z,89.23
2017-09-04T04:10:52.973Z,88.87
2017-09-04T04:13:20.778Z,88.84
2017-09-04T04:15:48.588Z,89.13
2017-09-04T04:18:16.287Z,88.58
2017-09-04T04:20:44.009Z,88.72
2017-09-04T04:23:11.749Z,89.08
2017-09-04T04:25:39.442Z,89.52
2017-09-04T04:28:07.185Z,90.02
2017-09-04T04:30:35.666Z,90.25
2017-09-04T04:33:03.413Z,89.77
2017-09-04T04:35:31.119Z,90.29
2017-09-04T04:37:58.807Z,90.22
2017-09-04T04:40:27.175Z,89.95
2017-09-04T04:42:54.846Z,89.64
2017-09-04T04:45:22.629Z,89.54
2017-09-04T04:47:50.394Z,89.64
2017-09-04T04:50:18.730Z,89.59
2017-09-04T04:52:46.516Z,90.09
2017-09-04T04:55:14.263Z,89.22
2017-09-04T04:57:42.048Z,89.66
2017-09-04T05:00:09.966Z,89.21
2017-09-04T05:02:37.658Z,89.22
2017-09-04T05:05:05.348Z,89.18
2017-09-04T05:07:34.086Z,89.22
2017-09-04T05:10:01.815Z,89.29
2017-09-04T05:12:29.527Z,89.46
2017-09-04T05:14:57.279Z,89.52
2017-09-04T05:17:25.043Z,88.09
2017-09-04T05:19:52.792Z,82.24
2017-09-04T05:22:20.494Z,83.39
2017-09-04T05:24:48.220Z,86.18
2017-09-04T05:27:16.132Z,87.20
2017-09-04T05:29:44.920Z,88.04
2017-09-04T05:32:12.735Z,88.76
2017-09-04T05:34:40.535Z,89.76
2017-09-04T05:37:08.196Z,89.91
2017-09-04T05:39:35.976Z,89.53
2017-09-04T05:42:03.660Z,89.11
2017-09-04T05:44:31.395Z,89.28
2017-09-04T05:46:59.359Z,89.05
2017-09-04T05:49:27.138Z,89.03
2017-09-04T05:51:54.838Z,88.97
2017-09-04T05:54:22.689Z,89.39
2017-09-04T05:56:50.476Z,87.98
2017-09-04T05:59:18.203Z,87.74
2017-09-04T06:01:46.041Z,88.13
2017-09-04T06:04:13.752Z,88.42
2017-09-04T06:06:41.553Z,89.30
2017-09-04T06:09:09.297Z,88.22
2017-09-04T06:11:37.034Z,87.85
2017-09-04T06:14:04.745Z,87.03
2017-09-04T06:16:32.560Z,87.20
2017-09-04T06:19:00.302Z,87.05
2017-09-04T06:21:28.027Z,86.36
2017-09-04T06:23:55.831Z,85.95
2017-09-04T06:26:23.648Z,84.89
2017-09-04T06:28:51.401Z,84.53
2017-09-04T06:31:19.192Z,81.70
2017-09-04T06:33:46.919Z,82.46
2017-09-04T06:36:14.703Z,83.58
2017-09-04T06:38:42.397Z,85.02
2017-09-04T06:41:10.196Z,84.62
2017-09-04T06:43:39.132Z,82.52
2017-09-04T06:46:06.860Z,83.46
2017-09-04T06:48:34.640Z,81.54
2017-09-04T06:51:02.358Z,81.53
2017-09-04T06:53:30.114Z,78.59
2017-09-04T06:55:57.885Z,77.95
2017-09-04T06:58:25.682Z,77.46
2017-09-04T07:00:54.442Z,75.40
2017-09-04T07:03:22.141Z,75.54
2017-09-04T07:05:50.532Z,78.89
2017-09-04T07:08:19.028Z,78.32
2017-09-04T07:10:47.143Z,78.64
2017-09-04T07:13:14.846Z,76.70
2017-09-04T07:15:42.552Z,77.03
2017-09-04T07:18:10.314Z,75.98
2017-09-04T07:20:38.023Z,76.88
2017-09-04T07:23:09.932Z,77.54
2017-09-04T07:25:39.688Z,78.17
2017-09-04T07:28:07.433Z,78.67
2017-09-04T07:30:35.142Z,79.98
2017-09-04T07:33:02.892Z,78.72
2017-09-04T07:35:30.736Z,79.89
2017-09-04T07:37:58.520Z,78.34
2017-09-04T07:40:26.272Z,78.52
2017-09-04T07:42:54.973Z,75.18
2017-09-04T07:45:22.794Z,73.53
2017-09-04T07:47:50.552Z,76.00
2017-09-04T07:50:18.297Z,75.54
2017-09-04T07:52:45.991Z,75.49
2017-09-04T07:55:13.804Z,76.16
2017-09-04T07:57:42.345Z,74.67
2017-09-04T08:00:10.426Z,73.89
2017-09-04T08:02:38.203Z,73.50
2017-09-04T08:05:05.974Z,73.45
2017-09-04T08:07:33.927Z,72.77
2017-09-04T08:10:01.777Z,72.13
2017-09-04T08:12:31.619Z,69.28
2017-09-04T08:14:59.349Z,68.75
2017-09-04T08:17:27.091Z,70.08
2017-09-04T08:19:54.913Z,69.61
2017-09-04T08:22:22.673Z,66.09
2017-09-04T08:24:50.480Z,67.44
2017-09-04T08:27:18.193Z,66.55
2017-09-04T08:29:45.946Z,67.61
2017-09-04T08:32:13.698Z,68.47
2017-09-04T08:34:41.427Z,67.53
2017-09-04T08:37:09.226Z,66.71
2017-09-04T08:39:38.072Z,61.42
2017-09-04T08:42:05.910Z,65.03
2017-09-04T08:44:33.765Z,66.23
2017-09-04T08:47:01.540Z,63.36
2017-09-04T08:49:29.542Z,63.84
2017-09-04T08:51:57.375Z,62.94
2017-09-04T08:54:25.129Z,61.56
2017-09-04T08:56:52.966Z,66.62
2017-09-04T08:59:21.808Z,65.12
2017-09-04T09:01:49.804Z,64.96
2017-09-04T09:04:17.648Z,63.98
2017-09-04T09:06:45.645Z,62.40
2017-09-04T09:09:13.459Z,60.95
2017-09-04T09:11:41.232Z,62.01
2017-09-04T09:14:09.112Z,59.38
2017-09-04T09:16:36.940Z,61.34
2017-09-04T09:19:06.636Z,62.00
2017-09-04T09:21:34.433Z,61.99
2017-09-04T09:24:02.337Z,59.64
2017-09-04T09:26:30.298Z,58.82
2017-09-04T09:28:58.109Z,60.29
2017-09-04T09:31:25.969Z,57.22
2017-09-04T09:33:53.688Z,57.57
2017-09-04T09:36:21.478Z,57.27
2017-09-04T09:38:49.575Z,60.26
2017-09-04T09:41:17.282Z,57.32
2017-09-04T09:43:45.064Z,60.50
2017-09-04T09:46:12.813Z,59.85
2017-09-04T09:48:42.200Z,58.97
2017-09-04T09:51:11.070Z,59.39
2017-09-04T09:53:39.693Z,54.29
2017-09-04T09:56:07.510Z,56.02
2017-09-04T09:58:35.341Z,57.77
2017-09-04T10:01:03.172Z,57.32
2017-09-04T10:03:31.040Z,57.23
2017-09-04T10:05:58.964Z,56.20
2017-09-04T10:08:26.778Z,57.41
2017-09-04T10:10:54.593Z,56.14
2017-09-04T10:13:22.414Z,56.24
2017-09-04T10:15:50.202Z,56.25
2017-09-04T10:18:18.523Z,52.23
2017-09-04T10:20:46.802Z,53.12
2017-09-04T10:23:14.812Z,50.85
2017-09-04T10:25:42.803Z,51.35
2017-09-04T10:28:10.982Z,52.38
2017-09-04T10:30:38.778Z,52.97
2017-09-04T10:33:06.546Z,51.40
2017-09-04T10:35:34.865Z,51.06
2017-09-04T10:38:02.651Z,52.48
2017-09-04T10:40:30.913Z,51.47
2017-09-04T10:42:58.732Z,53.20
2017-09-04T10:45:26.841Z,52.06
2017-09-04T10:47:54.699Z,51.84
2017-09-04T10:50:24.011Z,51.31
2017-09-04T10:52:51.885Z,51.25
2017-09-04T10:55:20.724Z,55.54
2017-09-04T10:57:48.479Z,56.34
2017-09-04T11:00:16.313Z,57.16
2017-09-04T11:02:44.949Z,56.46
2017-09-04T11:05:12.789Z,55.64
2017-09-04T11:07:40.608Z,56.57
2017-09-04T11:10:08.424Z,58.71
2017-09-04T11:12:36.223Z,57.02
2017-09-04T11:15:04.059Z,53.99
2017-09-04T11:17:31.869Z,57.72
2017-09-04T11:20:01.077Z,56.45
2017-09-04T11:22:28.861Z,57.49
2017-09-04T11:24:56.698Z,55.30
2017-09-04T11:27:24.495Z,58.53
2017-09-04T11:29:52.341Z,60.85
2017-09-04T11:32:20.129Z,61.60
2017-09-04T11:34:48.070Z,58.61
2017-09-04T11:37:15.903Z,56.95
2017-09-04T11:39:44.571Z,57.25
2017-09-04T11:42:12.363Z,56.43
2017-09-04T11:44:40.195Z,58.33
2017-09-04T11:47:07.904Z,59.67
2017-09-04T11:49:35.710Z,58.50
2017-09-04T11:52:03.480Z,52.96
2017-09-04T11:54:32.467Z,53.20
2017-09-04T11:57:00.289Z,55.32
2017-09-04T11:59:28.051Z,58.51
2017-09-04T12:01:55.860Z,59.82
2017-09-04T12:04:23.652Z,56.30
2017-09-04T12:06:52.476Z,55.08
2017-09-04T12:09:20.278Z,57.80
2017-09-04T12:11:47.991Z,54.81
2017-09-04T12:14:16.531Z,54.96
2017-09-04T12:16:44.341Z,56.09
2017-09-04T12:19:12.684Z,57.66
2017-09-04T12:21:40.388Z,54.30
2017-09-04T12:24:08.224Z,52.75
2017-09-04T12:26:36.050Z,49.21
2017-09-04T12:29:04.820Z,52.09
2017-09-04T12:31:32.662Z,50.65
2017-09-04T12:34:00.523Z,47.36
2017-09-04T12:36:30.339Z,49.70
2017-09-04T12:38:58.129Z,49.91
2017-09-04T12:41:25.956Z,51.21
2017-09-04T12:43:55.016Z,52.57
2017-09-04T12:46:22.883Z,51.98
2017-09-04T12:48:50.685Z,52.35
2017-09-04T12:51:18.637Z,54.73
2017-09-04T12:53:46.436Z,55.59
2017-09-04T12:56:14.252Z,56.41
2017-09-04T12:58:42.058Z,55.99
2017-09-04T13:01:09.832Z,56.74
2017-09-04T13:03:37.586Z,56.23
2017-09-04T13:06:05.357Z,54.19
2017-09-04T13:08:33.232Z,54.43
2017-09-04T13:11:06.537Z,56.12
2017-09-04T13:13:39.920Z,53.19
2017-09-04T13:16:13.360Z,55.52
2017-09-04T13:18:46.653Z,55.65
2017-09-04T13:21:19.972Z,57.25
2017-09-04T13:23:53.346Z,57.85
2017-09-04T13:26:26.620Z,57.25
2017-09-04T13:29:00.656Z,56.54
2017-09-04T13:31:33.971Z,54.96
2017-09-04T13:37:10.491Z,53.38
2017-09-04T13:39:43.798Z,52.88
2017-09-04T13:45:17.184Z,52.60
2017-09-04T13:47:50.586Z,50.52
2017-09-04T13:50:21.378Z,49.66
2017-09-04T13:52:54.625Z,49.44
2017-09-04T13:55:29.889Z,51.87
2017-09-04T13:58:03.381Z,53.12
2017-09-04T14:03:36.661Z,49.59
2017-09-04T14:06:10.047Z,49.79
2017-09-04T14:08:45.418Z,52.71
2017-09-04T14:14:34.884Z,52.58
2017-09-04T14:17:08.179Z,49.48
2017-09-04T14:19:35.952Z,45.00
2017-09-04T14:22:03.738Z,48.27
2017-09-04T14:24:31.489Z,44.64
2017-09-04T14:26:59.436Z,45.82
2017-09-04T14:29:27.309Z,45.65
2017-09-04T14:45:35.316Z,45.06
2017-09-04T14:48:03.084Z,44.33
2017-09-04T14:50:30.937Z,44.20
2017-09-04T14:52:58.797Z,42.44
2017-09-04T14:55:27.498Z,42.40
2017-09-04T14:57:56.180Z,44.76
2017-09-04T15:00:24.877Z,46.74
2017-09-04T15:05:05.797Z,49.07
2017-09-04T15:07:33.618Z,49.91
2017-09-04T15:10:01.711Z,53.01
2017-09-04T15:12:29.477Z,57.19
2017-09-04T15:14:57.386Z,59.08
2017-09-04T15:17:28.459Z,56.72
2017-09-04T15:19:56.252Z,56.90
2017-09-04T15:22:24.218Z,59.09
2017-09-04T15:24:51.979Z,59.66
2017-09-04T15:27:19.767Z,61.16
2017-09-04T15:29:47.699Z,63.22
2017-09-04T15:32:15.521Z,61.22
2017-09-04T15:34:43.306Z,56.84
2017-09-04T15:37:11.153Z,57.24
2017-09-04T15:39:38.937Z,53.76
2017-09-04T15:42:06.733Z,55.93
2017-09-04T15:44:34.567Z,59.01
2017-09-04T15:47:02.399Z,58.35
2017-09-04T15:49:30.214Z,60.06
2017-09-04T15:51:58.024Z,60.79
2017-09-04T15:54:25.943Z,61.04
2017-09-04T15:56:53.707Z,63.12
2017-09-04T15:59:21.504Z,61.80
2017-09-04T16:01:49.331Z,61.68
2017-09-04T16:04:17.100Z,62.66
2017-09-04T16:06:45.424Z,59.13
2017-09-04T16:09:13.210Z,55.26
2017-09-04T16:11:50.897Z,53.47
2017-09-04T16:14:21.221Z,56.21
2017-09-04T16:16:49.448Z,58.73
2017-09-04T16:19:17.213Z,61.07
2017-09-04T16:21:46.976Z,63.14
2017-09-04T16:24:18.497Z,63.30
2017-09-04T16:35:27.408Z,66.14
2017-09-04T16:37:59.618Z,68.30
2017-09-04T16:45:14.067Z,69.18
2017-09-04T16:55:16.077Z,67.35
2017-09-04T16:57:43.890Z,69.22
2017-09-04T17:00:11.773Z,70.23
2017-09-04T17:02:39.645Z,69.11
2017-09-04T17:05:07.472Z,69.68
2017-09-04T17:07:35.274Z,70.77
2017-09-04T17:10:07.834Z,69.94
2017-09-04T17:12:36.449Z,69.47
2017-09-04T17:15:06.213Z,69.21
2017-09-04T17:17:52.191Z,70.62
2017-09-04T17:20:21.608Z,71.38
2017-09-04T17:22:51.474Z,71.88
2017-09-04T17:25:20.049Z,73.63
2017-09-04T17:27:47.875Z,72.76
2017-09-04T17:30:15.694Z,72.83
2017-09-04T17:32:43.544Z,72.78
2017-09-04T17:35:11.336Z,71.99
2017-09-04T17:37:39.144Z,71.19
2017-09-04T17:40:06.997Z,71.86
2017-09-04T17:42:34.867Z,72.29
2017-09-04T17:45:02.716Z,71.69
2017-09-04T17:47:30.509Z,71.94
2017-09-04T17:49:58.352Z,73.14
2017-09-04T17:52:26.215Z,74.52
2017-09-04T17:54:54.142Z,74.05
2017-09-04T17:57:21.983Z,74.57
2017-09-04T17:59:49.765Z,74.00
2017-09-04T18:02:17.578Z,73.59
2017-09-04T18:04:45.326Z,72.26
2017-09-04T18:07:13.169Z,72.74
2017-09-04T18:09:40.975Z,73.34
2017-09-04T18:12:08.717Z,74.07
2017-09-04T18:14:36.923Z,73.22
2017-09-04T18:17:04.677Z,74.19
2017-09-04T18:19:32.477Z,74.76
2017-09-04T18:22:00.305Z,74.81
2017-09-04T18:24:28.188Z,75.03
2017-09-04T18:26:56.065Z,74.90
2017-09-04T18:29:23.856Z,73.32
2017-09-04T18:31:51.746Z,73.42
2017-09-04T18:34:19.921Z,73.91
2017-09-04T18:36:47.684Z,74.58
2017-09-04T18:39:15.620Z,74.90
2017-09-04T18:41:43.624Z,76.29
2017-09-04T18:44:11.686Z,76.94
2017-09-04T18:46:39.515Z,76.58
2017-09-04T18:49:07.374Z,76.15
2017-09-04T18:51:35.244Z,76.10
2017-09-04T18:54:03.176Z,76.87
2017-09-04T18:56:31.890Z,76.34
2017-09-04T18:58:59.759Z,77.19
2017-09-04T19:01:27.609Z,76.39
2017-09-04T19:03:55.496Z,76.60
2017-09-04T19:06:23.324Z,77.57
2017-09-04T19:08:52.369Z,77.41
2017-09-04T19:11:20.228Z,77.65
2017-09-04T19:13:48.562Z,76.63
2017-09-04T19:16:16.457Z,77.57
2017-09-04T19:18:44.376Z,78.12
2017-09-04T19:21:12.285Z,78.21
2017-09-04T19:23:40.285Z,78.08
2017-09-04T19:26:08.887Z,77.78
2017-09-04T19:28:37.032Z,77.63
2017-09-04T19:31:05.407Z,77.96
2017-09-04T19:33:33.256Z,77.00
2017-09-04T19:36:01.100Z,77.71
2017-09-04T19:38:29.128Z,78.10
2017-09-04T19:40:57.016Z,78.83
2017-09-04T19:43:25.532Z,78.38
2017-09-04T19:45:54.055Z,77.96
2017-09-04T19:48:21.994Z,78.26
2017-09-04T19:50:49.761Z,79.22
2017-09-04T19:53:17.573Z,78.93
2017-09-04T19:55:47.063Z,78.31
2017-09-04T19:58:15.275Z,78.28
2017-09-04T20:00:44.105Z,77.65
2017-09-04T20:03:11.976Z,77.95
2017-09-04T20:05:39.867Z,78.80
2017-09-04T20:08:07.746Z,78.38
2017-09-04T20:10:36.282Z,78.33
2017-09-04T20:13:04.193Z,78.84
2017-09-04T20:15:32.598Z,79.16
2017-09-04T20:18:01.397Z,79.55
2017-09-04T20:20:29.934Z,78.90
2017-09-04T20:22:58.005Z,79.10
2017-09-04T20:25:25.838Z,79.30
2017-09-04T20:27:53.658Z,79.68
2017-09-04T20:30:22.223Z,78.87
2017-09-04T20:32:50.450Z,80.12
2017-09-04T20:35:20.060Z,80.59
2017-09-04T20:37:47.977Z,80.02
2017-09-04T20:40:15.855Z,79.57
2017-09-04T20:42:43.696Z,79.53
2017-09-04T20:45:11.472Z,80.12
2017-09-04T20:47:39.375Z,80.88
2017-09-04T20:50:07.285Z,81.37
2017-09-04T20:52:35.149Z,80.89
2017-09-04T20:55:02.859Z,80.25
2017-09-04T20:57:30.573Z,80.63
2017-09-04T20:59:58.419Z,82.05
2017-09-04T21:02:27.013Z,81.19
2017-09-04T21:04:54.805Z,80.75
2017-09-04T21:07:23.585Z,80.66
2017-09-04T21:09:51.421Z,81.05
2017-09-04T21:12:20.369Z,82.69
2017-09-04T21:14:48.771Z,81.18
2017-09-04T21:17:16.585Z,81.40
2017-09-04T21:19:44.359Z,81.51
2017-09-04T21:22:12.190Z,80.98
2017-09-04T21:24:40.017Z,80.72
2017-09-04T21:27:07.890Z,81.84
2017-09-04T21:29:35.707Z,81.89
2017-09-04T21:32:03.504Z,80.13
2017-09-04T21:34:31.271Z,81.22
2017-09-04T21:36:59.049Z,81.69
2017-09-04T21:39:28.025Z,81.83
2017-09-04T21:41:55.938Z,81.39
2017-09-04T21:44:24.518Z,82.19
2017-09-04T21:46:53.030Z,81.46
2017-09-04T21:49:20.784Z,82.11
2017-09-04T21:51:48.572Z,83.73
2017-09-04T21:54:16.267Z,82.93
2017-09-04T21:56:44.089Z,82.06
2017-09-04T21:59:11.854Z,82.38
2017-09-04T22:01:39.661Z,82.41
2017-09-04T22:04:07.588Z,83.56
2017-09-04T22:06:35.388Z,84.00
2017-09-04T22:09:03.165Z,83.69
2017-09-04T22:11:30.886Z,83.25
2017-09-04T22:14:01.380Z,83.19
2017-09-04T22:16:30.010Z,82.78
2017-09-04T22:18:58.623Z,83.01
2017-09-04T22:21:26.407Z,83.21
2017-09-04T22:23:54.515Z,83.41
2017-09-04T22:26:22.360Z,83.44
2017-09-04T22:28:50.128Z,83.71
2017-09-04T22:31:17.878Z,84.62
2017-09-04T22:33:45.630Z,83.73
2017-09-04T22:36:13.533Z,83.87
2017-09-04T22:38:41.293Z,83.90
2017-09-04T22:41:09.009Z,84.12
2017-09-04T22:43:36.782Z,83.78
2017-09-04T22:46:04.586Z,83.96
2017-09-04T22:48:32.488Z,83.65
2017-09-04T22:51:00.256Z,83.70
2017-09-04T22:53:28.046Z,85.06
2017-09-04T22:55:56.010Z,84.37
2017-09-04T22:58:27.205Z,84.17
2017-09-04T23:00:55.018Z,84.93
2017-09-04T23:03:23.047Z,83.85
2017-09-04T23:05:50.978Z,84.11
2017-09-04T23:08:18.776Z,84.85
2017-09-04T23:10:46.681Z,84.83
2017-09-04T23:13:14.478Z,83.98
2017-09-04T23:15:42.242Z,85.40
2017-09-04T23:18:10.017Z,85.99
2017-09-04T23:20:38.097Z,86.07
2017-09-04T23:23:05.876Z,85.27
2017-09-04T23:25:33.674Z,85.39
2017-09-04T23:28:02.325Z,84.96
2017-09-04T23:30:30.330Z,85.18
2017-09-04T23:32:58.110Z,85.03
2017-09-04T23:35:25.839Z,84.89
2017-09-04T23:37:53.598Z,84.46
2017-09-04T23:40:21.330Z,84.96
2017-09-04T23:42:49.073Z,85.66
2017-09-04T23:45:16.851Z,85.28
2017-09-04T23:47:44.580Z,85.20
2017-09-04T23:50:12.331Z,85.27
2017-09-04T23:52:40.033Z,85.51
2017-09-04T23:55:07.905Z,85.62
2017-09-04T23:57:37.795Z,85.72
